Time;durP1;ratioP1;P1;durP2;ratioP2;P2;SDS_P1;SDS_P2;PMS_P1;PMS_P2;Temp;Humidity;BMP_temperature;BMP_pressure;BME280_temperature;BME280_humidity;BME280_pressure;Samples;Min_cycle;Max_cycle;Signal;HPM_P1;HPM_P2
2022/03/22 00:01:55;;;;;;;151.80;93.30;;;;;;;3.01;43.08;102633.06;109148;1267;23024;-75
2022/03/22 00:04:25;;;;;;;153.10;95.00;;;;;;;2.96;43.41;102632.58;109161;1267;21996;-75
2022/03/22 00:06:54;;;;;;;149.20;95.60;;;;;;;2.92;43.69;102634.31;108720;1270;22005;-76
2022/03/22 00:09:24;;;;;;;146.80;90.90;;;;;;;2.90;43.98;102635.29;108736;1271;23748;-76
2022/03/22 00:11:56;;;;;;;129.70;88.10;;;;;;;2.88;44.14;102637.27;108821;1270;22490;-76
2022/03/22 00:14:34;;;;;;;148.00;93.80;;;;;;;2.83;44.26;102638.00;108466;1276;22024;-75
2022/03/22 00:17:25;;;;;;;140.00;92.20;;;;;;;2.77;44.42;102635.60;108576;1271;22773;-76
2022/03/22 00:19:59;;;;;;;152.60;96.20;;;;;;;2.73;44.55;102633.70;108941;1269;23738;-76
2022/03/22 00:22:40;;;;;;;150.60;93.00;;;;;;;2.69;44.60;102627.58;108433;1276;22994;-77
2022/03/22 00:25:18;;;;;;;146.70;94.30;;;;;;;2.63;44.81;102629.55;108603;1270;23075;-76
2022/03/22 00:27:55;;;;;;;153.50;92.90;;;;;;;2.59;44.89;102631.13;108704;1270;23615;-75
2022/03/22 00:30:40;;;;;;;148.10;95.50;;;;;;;2.54;45.04;102629.39;108813;1272;23124;-76
2022/03/22 00:33:11;;;;;;;150.70;94.50;;;;;;;2.51;45.17;102628.81;108928;1267;21973;-76
2022/03/22 00:35:46;;;;;;;147.10;92.10;;;;;;;2.47;45.34;102628.08;109145;1267;23068;-76
2022/03/22 00:38:26;;;;;;;;;;;;;;;2.44;45.55;102627.34;108978;1270;21985;-76
2022/03/22 00:41:07;;;;;;;139.70;88.70;;;;;;;2.36;45.89;102626.78;109132;1264;22187;-77
2022/03/22 00:43:40;;;;;;;141.00;90.40;;;;;;;2.32;45.85;102628.50;109548;1264;22108;-76
2022/03/22 00:46:10;;;;;;;131.70;90.80;;;;;;;2.30;45.96;102627.69;109242;1267;22508;-76
2022/03/22 00:48:51;;;;;;;147.00;92.70;;;;;;;2.29;46.09;102633.13;108898;1270;23664;-76
2022/03/22 00:51:24;;;;;;;150.90;95.60;;;;;;;2.27;46.22;102630.96;108921;1267;22104;-76
2022/03/22 00:53:53;;;;;;;164.70;100.40;;;;;;;2.24;46.19;102636.79;108979;1270;23625;-76
2022/03/22 00:56:26;;;;;;;158.30;99.80;;;;;;;2.20;46.26;102636.77;108670;1270;22884;-77
2022/03/22 01:01:46;;;;;;;155.40;100.40;;;;;;;2.13;46.71;102627.82;108517;1271;23868;-76
2022/03/22 01:04:16;;;;;;;150.90;98.40;;;;;;;2.09;46.79;102626.56;108507;1273;23061;-77
2022/03/22 01:06:45;;;;;;;151.90;95.20;;;;;;;2.07;46.92;102629.97;108660;1270;22187;-76
2022/03/22 01:09:14;;;;;;;152.40;96.20;;;;;;;2.06;47.28;102620.97;108915;1270;23089;-77
2022/03/22 01:11:49;;;;;;;155.90;100.50;;;;;;;2.06;47.35;102620.77;108906;1267;23667;-76
2022/03/22 01:14:18;;;;;;;168.10;101.70;;;;;;;2.06;47.38;102619.23;109185;1264;22218;-75
2022/03/22 01:16:48;;;;;;;154.40;102.50;;;;;;;2.05;47.39;102622.39;109550;1265;23077;-76
2022/03/22 01:19:19;;;;;;;147.90;95.90;;;;;;;2.03;47.46;102618.46;109850;1259;21979;-76
2022/03/22 01:21:52;;;;;;;145.20;92.40;;;;;;;2.02;47.54;102613.65;109852;1258;24318;-76
2022/03/22 01:24:29;;;;;;;160.40;101.50;;;;;;;1.99;47.69;102612.19;109853;1258;21968;-76
2022/03/22 01:27:00;;;;;;;132.40;88.40;;;;;;;2.00;47.73;102614.24;110050;1258;24372;-76
2022/03/22 01:29:39;;;;;;;141.00;87.80;;;;;;;1.99;47.76;102613.08;110018;1257;22005;-75
2022/03/22 01:32:11;;;;;;;142.10;91.90;;;;;;;2.00;47.84;102611.99;110008;1257;22463;-75
2022/03/22 01:34:40;;;;;;;157.20;95.90;;;;;;;2.01;47.84;102608.82;109990;1260;22869;-75
2022/03/22 01:37:21;;;;;;;151.30;95.20;;;;;;;2.01;47.88;102610.22;110056;1259;22434;-75
2022/03/22 01:40:00;;;;;;;;;;;;;;;;;;;;;
2022/03/22 01:42:30;;;;;;;146.20;95.10;;;;;;;1.99;47.73;102611.16;110337;1257;22749;-76
2022/03/22 01:45:02;;;;;;;154.60;97.90;;;;;;;1.98;47.77;102611.89;110012;1257;22007;-76
2022/03/22 01:47:35;;;;;;;154.40;99.90;;;;;;;1.96;47.83;102609.17;109891;1257;23063;-76
2022/03/22 01:50:07;;;;;;;170.10;108.80;;;;;;;1.94;47.92;102607.86;109313;1266;21982;-76
2022/03/22 01:52:43;;;;;;;174.00;111.30;;;;;;;1.90;47.85;102607.84;109060;1270;21972;-76
2022/03/22 01:55:17;;;;;;;178.60;112.30;;;;;;;1.84;47.93;102609.77;109060;1268;22090;-76
2022/03/22 01:57:48;;;;;;;173.00;112.80;;;;;;;1.78;48.13;102604.27;108503;1274;23073;-76
2022/03/22 02:00:21;;;;;;;168.40;108.20;;;;;;;1.73;48.37;102599.75;108487;1274;21985;-76
2022/03/22 02:05:57;;;;;;;149.90;92.60;;;;;;;1.63;49.04;102596.30;108346;1279;22490;-77
2022/03/22 02:08:37;;;;;;;139.90;93.90;;;;;;;1.59;49.20;102597.12;108405;1276;22106;-76
2022/03/22 02:11:15;;;;;;;134.90;88.80;;;;;;;1.58;49.40;102597.02;108343;1276;23706;-76
2022/03/22 02:13:50;;;;;;;123.90;86.60;;;;;;;1.57;49.43;102596.69;108472;1276;22250;-76
2022/03/22 02:16:26;;;;;;;132.50;84.90;;;;;;;1.57;49.48;102593.58;108577;1271;21980;-76
2022/03/22 02:19:16;;;;;;;123.20;83.20;;;;;;;1.55;49.59;102592.92;108703;1273;23056;-76
2022/03/22 02:21:46;;;;;;;139.30;87.90;;;;;;;1.57;49.65;102591.84;108890;1270;22546;-77
2022/03/22 02:24:17;;;;;;;130.40;87.10;;;;;;;1.59;49.64;102587.77;108865;1267;21978;-76
2022/03/22 02:26:48;;;;;;;135.10;90.30;;;;;;;1.60;49.62;102588.44;109140;1267;22066;-76
2022/03/22 02:29:20;;;;;;;127.70;84.70;;;;;;;1.59;49.44;102592.45;109321;1262;22345;-76
2022/03/22 02:31:54;;;;;;;139.80;87.80;;;;;;;1.58;49.41;102588.31;109823;1262;21994;-75
2022/03/22 02:34:23;;;;;;;136.60;89.60;;;;;;;1.58;49.38;102587.28;109730;1263;21978;-76
2022/03/22 02:36:55;;;;;;;;;;;;;;;1.56;49.38;102585.60;109258;1267;21969;-76
2022/03/22 02:39:36;;;;;;;121.20;79.80;;;;;;;1.50;49.54;102589.48;109180;1267;21985;-75
2022/03/22 02:42:08;;;;;;;128.60;86.30;;;;;;;1.47;49.54;102585.61;109204;1267;22996;-76
2022/03/22 02:44:38;;;;;;;138.50;90.90;;;;;;;1.46;49.42;102583.71;108853;1270;21987;-76
2022/03/22 02:47:15;;;;;;;143.20;92.00;;;;;;;1.45;49.38;102588.08;108715;1270;23011;-76
2022/03/22 02:49:48;;;;;;;144.10;94.60;;;;;;;1.44;49.37;102589.52;108989;1270;21988;-76
2022/03/22 02:52:21;;;;;;;156.70;104.20;;;;;;;1.39;49.29;102591.08;108942;1269;21996;-76
2022/03/22 02:54:50;;;;;;;176.00;113.40;;;;;;;1.34;49.30;102590.35;108971;1267;22054;-77
2022/03/22 02:57:24;;;;;;;168.10;118.20;;;;;;;1.32;49.50;102591.47;109188;1267;22452;-76
2022/03/22 03:00:04;;;;;;;247.80;159.40;;;;;;;1.31;49.53;102592.91;109192;1267;21987;-76
2022/03/22 03:02:51;;;;;;;266.30;163.30;;;;;;;1.31;49.72;102595.01;109373;1258;23674;-77
2022/03/22 03:05:30;;;;;;;159.20;107.70;;;;;;;1.31;49.94;102593.79;109222;1264;23856;-75
2022/03/22 03:08:02;;;;;;;163.30;115.60;;;;;;;1.31;49.94;102595.52;109165;1264;23709;-76
2022/03/22 03:10:37;;;;;;;275.90;193.00;;;;;;;1.32;49.93;102597.05;108914;1269;22022;-76
2022/03/22 03:13:20;;;;;;;339.40;248.60;;;;;;;1.33;49.91;102598.23;109011;1267;24447;-76
2022/03/22 03:15:52;;;;;;;365.80;254.80;;;;;;;1.34;49.89;102595.92;109015;1267;22848;-77
2022/03/22 03:18:33;;;;;;;454.00;343.30;;;;;;;1.36;49.76;102599.52;108933;1266;21988;-76
2022/03/22 03:21:03;;;;;;;448.70;343.30;;;;;;;1.37;49.82;102599.31;109065;1267;22104;-77
2022/03/22 03:23:34;;;;;;;450.80;347.90;;;;;;;1.39;49.74;102601.66;109164;1266;24929;-76
2022/03/22 03:26:18;;;;;;;620.80;474.30;;;;;;;1.38;49.61;102604.30;109785;1262;22869;-77
2022/03/22 03:29:09;;;;;;;535.50;403.20;;;;;;;1.37;49.52;102603.12;109813;1257;21967;-79
2022/03/22 03:31:51;;;;;;;576.00;439.00;;;;;;;1.36;49.69;102605.21;110055;1257;23043;-76
2022/03/22 03:34:30;;;;;;;420.40;314.50;;;;;;;1.37;49.70;102608.85;109995;1257;23654;-76
2022/03/22 03:37:09;;;;;;;308.30;215.20;;;;;;;1.37;49.63;102607.64;109986;1257;23599;-75
2022/03/22 03:39:52;;;;;;;;;;;;;;;;;;;;;
2022/03/22 03:42:30;;;;;;;239.80;141.10;;;;;;;1.38;49.62;102608.11;109225;1267;21975;-76
2022/03/22 03:47:50;;;;;;;172.90;117.80;;;;;;;1.38;49.40;102604.48;108951;1267;22086;-76
2022/03/22 03:50:23;;;;;;;137.30;98.00;;;;;;;1.35;49.48;102602.13;109204;1267;23668;-76
2022/03/22 03:53:15;;;;;;;127.90;84.10;;;;;;;1.30;49.27;102604.58;108731;1270;22040;-76
2022/03/22 03:55:58;;;;;;;163.60;100.20;;;;;;;1.23;49.42;102604.30;108752;1270;21999;-76
2022/03/22 03:58:30;;;;;;;133.20;84.60;;;;;;;1.18;49.62;102606.39;109037;1267;21985;-77
2022/03/22 04:01:05;;;;;;;137.10;87.30;;;;;;;1.16;49.83;102607.14;109281;1263;21985;-76
2022/03/22 04:03:36;;;;;;;124.20;80.20;;;;;;;1.16;49.93;102607.65;109345;1263;23092;-77
2022/03/22 04:06:10;;;;;;;110.60;77.50;;;;;;;1.17;50.00;102609.02;109373;1263;23592;-75
2022/03/22 04:08:42;;;;;;;117.10;78.10;;;;;;;1.16;49.92;102611.13;109315;1263;22011;-76
2022/03/22 04:11:12;;;;;;;100.90;74.10;;;;;;;1.15;50.02;102614.81;109655;1257;22035;-76
2022/03/22 04:13:45;;;;;;;121.00;79.40;;;;;;;1.14;50.09;102618.31;109739;1257;21965;-75
2022/03/22 04:16:14;;;;;;;108.70;75.60;;;;;;;1.13;50.07;102616.94;110085;1257;22954;-75
2022/03/22 04:18:53;;;;;;;107.00;73.00;;;;;;;1.12;50.02;102618.71;109996;1257;23677;-76
2022/03/22 04:21:27;;;;;;;110.80;75.70;;;;;;;1.12;50.10;102618.73;109954;1257;23759;-76
2022/03/22 04:23:59;;;;;;;119.00;79.00;;;;;;;1.12;50.11;102618.38;109209;1267;21965;-77
2022/03/22 04:26:30;;;;;;;124.30;77.20;;;;;;;1.12;50.08;102618.05;109216;1267;21975;-76
2022/03/22 04:34:50;;;;;;;113.10;78.80;;;;;;;1.08;50.14;102628.08;109462;1264;22754;-76
2022/03/22 04:37:32;;;;;;;101.40;72.60;;;;;;;1.06;50.19;102626.73;109235;1267;22307;-76
2022/03/22 04:40:10;;;;;;;136.90;78.90;;;;;;;1.06;50.34;102626.20;109276;1266;22951;-77
2022/03/22 04:42:40;;;;;;;197.50;96.90;;;;;;;1.09;50.48;102622.98;109726;1257;22079;-76
2022/03/22 04:45:20;;;;;;;146.10;83.60;;;;;;;1.11;50.43;102625.17;110152;1257;21978;-77
2022/03/22 04:47:52;;;;;;;158.20;97.70;;;;;;;1.12;50.29;102628.98;109971;1258;23064;-76
2022/03/22 04:50:31;;;;;;;603.10;361.30;;;;;;;1.13;50.37;102625.98;110191;1258;21986;-78
2022/03/22 04:58:38;;;;;;;291.60;152.60;;;;;;;1.14;50.31;102634.63;108899;1270;22219;-77
2022/03/22 05:01:08;;;;;;;289.80;142.20;;;;;;;1.14;50.32;102636.53;108946;1270;22023;-77
2022/03/22 05:03:39;;;;;;;207.50;108.90;;;;;;;1.15;50.46;102634.59;108759;1270;22056;-76
2022/03/22 05:06:28;;;;;;;176.50;95.50;;;;;;;1.15;50.50;102638.75;108949;1270;23293;-77
2022/03/22 05:09:03;;;;;;;524.40;292.30;;;;;;;1.15;50.53;102642.23;109106;1267;22373;-75
2022/03/22 05:11:35;;;;;;;478.40;284.40;;;;;;;1.15;50.71;102640.30;109070;1264;23043;-75
2022/03/22 05:14:08;;;;;;;321.20;171.30;;;;;;;1.19;50.74;102642.27;109684;1263;23014;-75
2022/03/22 05:16:39;;;;;;;295.80;143.50;;;;;;;1.23;50.74;102640.24;109273;1263;22023;-74
2022/03/22 05:19:08;;;;;;;184.20;106.50;;;;;;;1.26;50.70;102637.01;109551;1264;21976;-77
2022/03/22 05:21:42;;;;;;;162.50;98.80;;;;;;;1.32;50.83;102636.12;109700;1263;23769;-74
2022/03/22 05:24:12;;;;;;;176.10;99.60;;;;;;;1.38;50.72;102640.23;109938;1262;23702;-75
2022/03/22 05:26:41;;;;;;;154.20;88.70;;;;;;;1.42;50.48;102643.41;109196;1267;21952;-75
2022/03/22 05:29:22;;;;;;;229.60;147.80;;;;;;;1.45;50.48;102640.20;108990;1267;21965;-75
2022/03/22 05:31:51;;;;;;;383.60;256.70;;;;;;;1.49;50.44;102636.56;108919;1267;23035;-76
2022/03/22 05:34:20;;;;;;;303.70;180.60;;;;;;;1.54;50.52;102633.80;109243;1262;21974;-75
2022/03/22 05:36:50;;;;;;;279.20;150.20;;;;;;;1.58;50.36;102633.83;109625;1263;23039;-76
2022/03/22 05:39:19;;;;;;;227.30;122.70;;;;;;;1.62;50.26;102636.45;109542;1261;21981;-76
2022/03/22 05:41:48;;;;;;;177.40;99.20;;;;;;;1.67;50.44;102637.48;109277;1262;23118;-76
2022/03/22 05:44:19;;;;;;;143.60;87.30;;;;;;;1.73;50.37;102637.13;109582;1263;22173;-76
2022/03/22 05:46:49;;;;;;;160.30;93.10;;;;;;;1.76;50.19;102635.44;109692;1263;23125;-76
2022/03/22 05:49:18;;;;;;;143.50;86.80;;;;;;;1.78;50.16;102637.30;109631;1263;21992;-76
2022/03/22 05:52:01;;;;;;;123.30;80.40;;;;;;;1.81;50.32;102636.84;109910;1260;23466;-76
2022/03/22 05:54:30;;;;;;;141.70;97.70;;;;;;;1.84;50.20;102635.52;109911;1260;23689;-76
2022/03/22 05:57:06;;;;;;;178.10;126.70;;;;;;;1.88;50.22;102636.40;109520;1263;21969;-76
2022/03/22 05:59:35;;;;;;;144.70;93.20;;;;;;;1.92;50.28;102634.52;109578;1263;22058;-76
2022/03/22 06:02:13;;;;;;;120.30;80.80;;;;;;;1.97;50.20;102632.77;109674;1262;22429;-78
2022/03/22 06:04:43;;;;;;;128.90;86.30;;;;;;;2.02;50.21;102640.07;109634;1263;22062;-76
2022/03/22 06:07:12;;;;;;;122.20;84.80;;;;;;;2.05;50.17;102636.83;109842;1262;22083;-76
2022/03/22 06:09:42;;;;;;;117.70;81.10;;;;;;;2.08;50.18;102639.65;109752;1262;21983;-76
2022/03/22 06:12:11;;;;;;;115.40;79.60;;;;;;;2.14;50.25;102637.88;109593;1263;24280;-77
2022/03/22 06:14:41;;;;;;;115.50;79.40;;;;;;;2.19;50.37;102639.77;109943;1257;21968;-77
2022/03/22 06:17:11;;;;;;;109.50;80.20;;;;;;;2.26;50.41;102642.14;110009;1257;23696;-77
2022/03/22 06:19:40;;;;;;;111.10;79.60;;;;;;;2.32;50.38;102642.07;110130;1259;24502;-77
2022/03/22 06:22:09;;;;;;;105.30;77.60;;;;;;;2.41;50.38;102640.88;109926;1257;21978;-77
2022/03/22 06:24:39;;;;;;;100.30;74.30;;;;;;;2.50;50.54;102645.88;110162;1257;22041;-77
2022/03/22 06:27:10;;;;;;;105.30;75.90;;;;;;;2.63;50.52;102646.45;110186;1257;23106;-77
2022/03/22 06:29:41;;;;;;;110.70;79.50;;;;;;;2.77;50.50;102645.88;110174;1257;24306;-77
2022/03/22 06:32:14;;;;;;;97.30;72.10;;;;;;;2.93;50.41;102648.55;109954;1257;22099;-76
2022/03/22 06:34:44;;;;;;;105.10;69.50;;;;;;;3.12;50.46;102646.39;110026;1257;21983;-76
2022/03/22 06:37:14;;;;;;;111.00;79.80;;;;;;;3.36;50.57;102646.09;109326;1264;22996;-76
2022/03/22 06:39:43;;;;;;;106.20;72.70;;;;;;;3.63;50.34;102642.48;109275;1265;21987;-76
2022/03/22 06:42:12;;;;;;;116.40;85.30;;;;;;;3.91;50.01;102644.39;109540;1264;21973;-76
2022/03/22 06:44:41;;;;;;;93.20;68.90;;;;;;;4.21;49.77;102644.75;109557;1263;23013;-75
2022/03/22 06:47:10;;;;;;;84.60;62.20;;;;;;;4.62;49.72;102647.21;109505;1264;22867;-75
2022/03/22 06:49:39;;;;;;;86.30;61.20;;;;;;;5.17;49.69;102648.02;109584;1264;23599;-76
2022/03/22 06:52:08;;;;;;;77.20;56.40;;;;;;;5.74;49.08;102649.98;109345;1263;23594;-76
2022/03/22 06:54:38;;;;;;;73.10;53.90;;;;;;;6.29;47.63;102653.04;109198;1260;23071;-75
2022/03/22 06:57:07;;;;;;;71.70;52.40;;;;;;;6.78;45.95;102654.04;110266;1257;23269;-75
2022/03/22 06:59:36;;;;;;;76.10;50.90;;;;;;;7.20;44.59;102649.14;110160;1257;21967;-74
2022/03/22 07:02:05;;;;;;;71.20;50.50;;;;;;;7.61;43.38;102651.26;109992;1257;23681;-75
2022/03/22 07:04:35;;;;;;;68.40;51.30;;;;;;;7.99;42.52;102652.33;110348;1257;22333;-74
2022/03/22 07:07:04;;;;;;;72.30;51.30;;;;;;;8.37;41.45;102652.96;110419;1257;23830;-75
2022/03/22 07:09:34;;;;;;;65.20;46.60;;;;;;;8.72;40.72;102659.69;110189;1257;21966;-76
2022/03/22 07:12:03;;;;;;;71.60;52.60;;;;;;;8.99;39.70;102656.46;110294;1257;21986;-76
2022/03/22 07:14:40;;;;;;;64.90;48.50;;;;;;;9.26;39.29;102656.10;110297;1257;21992;-76
2022/03/22 07:17:13;;;;;;;68.80;48.80;;;;;;;9.54;38.89;102656.67;110222;1257;22049;-76
2022/03/22 07:19:47;;;;;;;58.90;47.30;;;;;;;9.79;38.15;102654.77;110065;1258;21974;-76
2022/03/22 07:22:16;;;;;;;55.40;42.90;;;;;;;10.00;37.55;102652.57;109534;1264;23055;-76
2022/03/22 07:24:53;;;;;;;53.80;43.00;;;;;;;10.25;37.12;102656.45;109587;1264;22113;-76
2022/03/22 07:27:22;;;;;;;44.50;35.60;;;;;;;10.58;36.88;102657.33;109611;1263;22738;-76
2022/03/22 07:29:54;;;;;;;;;;;;;;;10.93;36.18;102656.33;109064;1267;23058;-77
2022/03/22 07:32:23;;;;;;;51.60;39.00;;;;;;;11.14;35.23;102655.67;108989;1267;22025;-75
2022/03/22 07:34:52;;;;;;;47.20;36.30;;;;;;;11.32;35.00;102654.94;109166;1267;23591;-76
2022/03/22 07:37:29;;;;;;;48.50;37.30;;;;;;;11.75;35.22;102654.14;109188;1267;22766;-76
2022/03/22 07:39:59;;;;;;;41.60;36.60;;;;;;;12.15;34.01;102656.99;109309;1264;23725;-76
2022/03/22 07:42:29;;;;;;;44.80;35.80;;;;;;;12.41;33.25;102658.34;109194;1267;21991;-81
2022/03/22 07:45:23;;;;;;;48.60;37.10;;;;;;;12.71;32.86;102661.76;109305;1267;22058;-82
2022/03/22 07:47:57;;;;;;;43.20;37.60;;;;;;;12.98;32.23;102659.20;109402;1263;21976;-80
2022/03/22 07:53:24;;;;;;;41.40;36.00;;;;;;;13.37;31.49;102655.16;109838;1263;22946;-80
2022/03/22 07:55:59;;;;;;;51.50;41.30;;;;;;;13.58;31.02;102656.95;109410;1263;21984;-82
2022/03/22 07:58:32;;;;;;;44.80;36.50;;;;;;;13.69;30.54;102662.40;109617;1264;22004;-83
2022/03/22 08:01:07;;;;;;;46.30;37.80;;;;;;;13.78;30.64;102663.34;110031;1257;21959;-81
2022/03/22 08:03:42;;;;;;;56.60;39.90;;;;;;;13.99;30.69;102661.59;110312;1257;23612;-80
2022/03/22 08:06:19;;;;;;;48.90;40.10;;;;;;;14.30;30.46;102658.13;110485;1257;22046;-81
2022/03/22 08:08:52;;;;;;;49.80;40.60;;;;;;;14.72;30.29;102659.04;109544;1263;22751;-81
2022/03/22 08:11:25;;;;;;;46.90;40.20;;;;;;;15.03;29.19;102656.35;109759;1264;22402;-81
2022/03/22 08:14:01;;;;;;;49.80;40.80;;;;;;;15.22;28.22;102649.30;109575;1261;22341;-80
2022/03/22 08:16:33;;;;;;;50.10;39.20;;;;;;;15.39;28.02;102648.10;109898;1263;23862;-82
2022/03/22 08:19:07;;;;;;;45.40;37.20;;;;;;;15.44;27.42;102648.48;109336;1267;23064;-81
2022/03/22 08:21:36;;;;;;;47.90;38.50;;;;;;;15.50;27.74;102647.40;109005;1267;23606;-80
2022/03/22 08:24:08;;;;;;;43.00;37.00;;;;;;;15.71;27.79;102646.13;109168;1267;24053;-81
2022/03/22 08:26:38;;;;;;;41.90;37.40;;;;;;;15.88;27.08;102651.96;109347;1267;21985;-81
2022/03/22 08:29:09;;;;;;;49.50;38.60;;;;;;;15.96;26.70;102649.07;109181;1267;21976;-81
2022/03/22 08:31:51;;;;;;;41.40;36.90;;;;;;;16.27;27.12;102646.23;109233;1267;23068;-83
2022/03/22 08:34:23;;;;;;;40.30;34.80;;;;;;;16.53;26.18;102649.20;109601;1264;21995;-81
2022/03/22 08:36:58;;;;;;;39.50;34.50;;;;;;;16.61;25.80;102647.23;109697;1257;23621;-82
2022/03/22 08:39:29;;;;;;;41.50;34.60;;;;;;;16.78;25.82;102648.02;110621;1257;23040;-82
2022/03/22 08:42:01;;;;;;;39.00;34.80;;;;;;;17.08;25.93;102643.27;110525;1257;21983;-83
2022/03/22 08:44:30;;;;;;;39.70;35.40;;;;;;;17.48;25.57;102643.10;109542;1263;22174;-81
2022/03/22 08:47:25;;;;;;;;;;;;;;;;;;;;;
2022/03/22 08:50:31;;;;;;;39.50;33.80;;;;;;;17.95;23.92;102639.50;109761;1263;21979;-81
2022/03/22 08:53:11;;;;;;;38.70;34.60;;;;;;;18.02;23.75;102640.73;109636;1263;22433;-83
2022/03/22 08:55:52;;;;;;;41.40;34.10;;;;;;;18.16;23.81;102639.95;109605;1263;22132;-82
2022/03/22 08:58:24;;;;;;;41.80;35.10;;;;;;;18.28;23.46;102641.18;109659;1264;22040;-80
2022/03/22 09:00:57;;;;;;;51.50;39.70;;;;;;;18.49;23.38;102633.34;109279;1267;22843;-81
2022/03/22 09:03:32;;;;;;;40.10;34.50;;;;;;;18.69;22.76;102632.89;109406;1267;22281;-81
2022/03/22 09:06:12;;;;;;;65.00;58.50;;;;;;;18.74;22.19;102631.77;109588;1267;22072;-82
2022/03/22 09:08:53;;;;;;;53.90;48.00;;;;;;;18.76;22.01;102628.73;109055;1273;22041;-81
2022/03/22 09:11:26;;;;;;;50.50;38.20;;;;;;;18.84;21.89;102628.25;108857;1273;22850;-81
2022/03/22 09:14:03;;;;;;;45.00;33.70;;;;;;;18.85;21.37;102630.77;108899;1273;21988;-82
2022/03/22 09:16:39;;;;;;;32.30;28.40;;;;;;;18.96;21.69;102623.36;108622;1279;23653;-79
2022/03/22 09:19:08;;;;;;;35.00;29.60;;;;;;;19.27;21.37;102622.58;108558;1275;23711;-81
2022/03/22 09:21:52;;;;;;;45.90;34.50;;;;;;;19.54;21.29;102614.77;108933;1270;23440;-80
2022/03/22 09:24:25;;;;;;;43.50;32.00;;;;;;;19.87;21.43;102612.36;109047;1270;21991;-81
2022/03/22 09:26:55;;;;;;;38.90;31.30;;;;;;;20.33;21.04;102610.98;109378;1263;21991;-80
2022/03/22 09:29:32;;;;;;;38.00;32.40;;;;;;;20.68;20.43;102605.20;109817;1263;22911;-80
2022/03/22 09:32:05;;;;;;;42.70;32.70;;;;;;;20.82;19.71;102602.15;109177;1267;21985;-81
2022/03/22 09:34:40;;;;;;;40.70;36.20;;;;;;;20.99;19.87;102597.21;109262;1264;22046;-81
2022/03/22 09:37:14;;;;;;;36.70;31.40;;;;;;;21.27;19.75;102597.98;109733;1264;21981;-81
2022/03/22 09:39:47;;;;;;;33.20;29.20;;;;;;;21.34;19.15;102596.27;109557;1263;22008;-81
2022/03/22 09:42:23;;;;;;;27.60;24.70;;;;;;;21.28;18.98;102594.85;109529;1263;22001;-81
2022/03/22 09:45:01;;;;;;;27.70;24.90;;;;;;;21.20;19.10;102592.21;109523;1264;21988;-81
2022/03/22 09:47:31;;;;;;;46.20;35.30;;;;;;;21.21;19.08;102594.92;109754;1264;22210;-82
2022/03/22 09:50:06;;;;;;;32.20;28.80;;;;;;;21.19;18.83;102587.15;109367;1263;22021;-81
2022/03/22 09:52:40;;;;;;;37.50;30.20;;;;;;;21.27;18.88;102586.45;109214;1267;22149;-81
2022/03/22 09:55:16;;;;;;;31.70;25.10;;;;;;;21.61;18.78;102585.70;109185;1267;22756;-82
2022/03/22 09:57:57;;;;;;;25.00;20.40;;;;;;;21.82;18.31;102579.83;109237;1267;21982;-81
2022/03/22 10:00:27;;;;;;;25.20;20.10;;;;;;;22.02;17.70;102577.31;108991;1270;24053;-81
2022/03/22 10:03:00;;;;;;;23.30;21.00;;;;;;;22.20;17.26;102577.34;109234;1270;22484;-79
2022/03/22 10:05:35;;;;;;;22.30;18.20;;;;;;;22.32;16.88;102575.64;108990;1270;21960;-80
2022/03/22 10:08:07;;;;;;;28.70;22.70;;;;;;;22.38;16.63;102567.75;109087;1270;22006;-81
2022/03/22 10:11:01;;;;;;;22.60;19.10;;;;;;;22.68;16.76;102569.50;109277;1267;21986;-80
2022/03/22 10:13:35;;;;;;;;;;;;;;;23.32;16.21;102569.13;109238;1267;21979;-84
2022/03/22 10:16:06;;;;;;;70.90;17.70;;;;;;;23.47;16.02;102565.55;109332;1267;22279;-81
2022/03/22 10:18:39;;;;;;;21.40;18.00;;;;;;;23.50;15.83;102560.67;109534;1263;22030;-82
2022/03/22 10:21:13;;;;;;;21.00;18.70;;;;;;;24.06;15.79;102564.08;109388;1263;24372;-80
2022/03/22 10:23:55;;;;;;;21.20;18.20;;;;;;;24.96;15.45;102565.88;109547;1264;21982;-82
2022/03/22 10:26:44;;;;;;;20.30;17.60;;;;;;;25.57;14.54;102563.55;110559;1257;21983;-80
2022/03/22 10:29:19;;;;;;;21.20;17.30;;;;;;;25.76;13.66;102558.75;110443;1258;21974;-83
2022/03/22 10:32:00;;;;;;;20.50;18.40;;;;;;;25.88;13.45;102556.66;110598;1257;22007;-82
2022/03/22 10:34:35;;;;;;;18.70;16.10;;;;;;;26.11;13.12;102559.11;110390;1257;21993;-80
2022/03/22 10:37:13;;;;;;;19.20;17.30;;;;;;;26.17;12.91;102557.34;109564;1263;24162;-81
2022/03/22 10:39:44;;;;;;;18.70;15.60;;;;;;;26.60;12.95;102557.41;109260;1267;22016;-80
2022/03/22 10:42:13;;;;;;;19.40;17.30;;;;;;;26.89;12.29;102552.73;109410;1267;22095;-81
2022/03/22 10:44:42;;;;;;;20.30;17.10;;;;;;;27.39;12.55;102550.45;109388;1267;22806;-79
2022/03/22 10:47:12;;;;;;;19.60;16.00;;;;;;;28.33;12.28;102552.27;109140;1267;21991;-82
2022/03/22 10:50:07;;;;;;;16.10;14.60;;;;;;;28.90;11.47;102555.53;109242;1267;24018;-80
2022/03/22 10:52:57;;;;;;;18.60;16.70;;;;;;;28.74;11.05;102548.95;108966;1273;21986;-80
2022/03/22 10:55:31;;;;;;;17.00;15.20;;;;;;;28.71;10.94;102545.73;109076;1267;22049;-81
2022/03/22 10:58:04;;;;;;;17.10;15.50;;;;;;;29.06;11.20;102539.29;109290;1263;21978;-81
2022/03/22 11:00:38;;;;;;;16.70;15.10;;;;;;;29.55;10.74;102539.63;108945;1270;21987;-80
2022/03/22 11:03:10;;;;;;;17.50;15.80;;;;;;;29.36;10.28;102536.60;109183;1270;21986;-81
2022/03/22 11:05:44;;;;;;;23.50;16.60;;;;;;;28.54;10.52;102528.38;109085;1270;22091;-80
2022/03/22 11:08:18;;;;;;;20.60;18.00;;;;;;;27.34;11.03;102526.19;109035;1270;21972;-82
2022/03/22 11:10:48;;;;;;;19.10;16.90;;;;;;;26.31;11.51;102523.50;109387;1264;22060;-81
2022/03/22 11:13:27;;;;;;;19.00;16.20;;;;;;;25.26;11.58;102521.69;109870;1263;21988;-81
2022/03/22 11:16:00;;;;;;;18.10;16.20;;;;;;;24.37;12.34;102516.91;109517;1264;22999;-81
2022/03/22 11:18:35;;;;;;;19.70;17.00;;;;;;;23.54;12.84;102507.60;109796;1257;23021;-80
2022/03/22 11:21:05;;;;;;;19.40;17.40;;;;;;;22.80;13.28;102505.36;110293;1257;22035;-80
2022/03/22 11:23:39;;;;;;;23.30;20.50;;;;;;;22.11;13.64;102499.53;110515;1257;23020;-80
2022/03/22 11:26:12;;;;;;;16.70;15.00;;;;;;;21.33;13.90;102495.83;110372;1257;21996;-81
2022/03/22 11:28:46;;;;;;;18.90;15.00;;;;;;;20.52;14.38;102498.00;110404;1257;21963;-81
2022/03/22 11:31:26;;;;;;;19.50;16.70;;;;;;;19.75;15.06;102493.20;109425;1264;23163;-80
2022/03/22 11:34:11;;;;;;;17.20;15.30;;;;;;;19.15;15.40;102492.27;109623;1263;21998;-81
2022/03/22 11:36:53;;;;;;;19.00;15.80;;;;;;;18.52;15.90;102489.61;109175;1267;22068;-81
2022/03/22 11:42:25;;;;;;;24.10;19.40;;;;;;;17.83;16.93;102476.74;108757;1273;22066;-80
2022/03/22 11:45:02;;;;;;;19.30;16.20;;;;;;;17.70;17.15;102479.61;108812;1273;23621;-81
2022/03/22 11:47:44;;;;;;;23.30;19.60;;;;;;;17.58;17.26;102480.66;108943;1275;22116;-80
2022/03/22 11:50:16;;;;;;;19.80;15.20;;;;;;;17.25;17.63;102473.63;109114;1270;24048;-80
2022/03/22 11:52:51;;;;;;;17.20;15.50;;;;;;;17.01;18.06;102472.73;108954;1270;22120;-81
2022/03/22 11:55:27;;;;;;;21.20;15.60;;;;;;;16.87;18.40;102469.19;109255;1263;21997;-80
2022/03/22 11:58:08;;;;;;;22.70;17.50;;;;;;;16.85;18.56;102464.23;109544;1264;22371;-80
2022/03/22 12:00:56;;;;;;;18.50;16.60;;;;;;;16.81;18.47;102461.23;109895;1257;21993;-79
2022/03/22 12:03:35;;;;;;;34.00;25.70;;;;;;;16.75;18.83;102454.36;110407;1258;23477;-80
2022/03/22 12:06:16;;;;;;;31.00;23.60;;;;;;;16.86;19.28;102455.96;110548;1256;22766;-80